createdAt,value
2022-08-17T00:02:26.734Z,48.86
2022-08-17T00:07:31.710Z,50.28
2022-08-17T00:12:44.360Z,51.41
2022-08-17T00:19:05.759Z,51.81
2022-08-17T00:23:28.586Z,52.31
2022-08-17T00:28:48.918Z,51.97
2022-08-17T00:33:56.261Z,52.54
2022-08-17T00:39:04.019Z,51.81
2022-08-17T00:44:30.278Z,52.04
2022-08-17T00:49:33.430Z,50.26
2022-08-17T00:54:55.592Z,49.71
2022-08-17T01:00:19.214Z,49.79
2022-08-17T01:05:26.536Z,48.70
2022-08-17T01:10:59.140Z,49.34
2022-08-17T01:16:27.478Z,48.68
2022-08-17T01:21:52.101Z,49.29
2022-08-17T01:26:57.628Z,49.36
2022-08-17T01:32:08.498Z,48.84
2022-08-17T01:37:17.920Z,49.28
2022-08-17T01:42:42.414Z,47.94
2022-08-17T01:47:44.787Z,48.25
2022-08-17T01:52:54.198Z,47.77
2022-08-17T01:57:56.331Z,47.88
2022-08-17T02:02:58.402Z,49.16
2022-08-17T02:08:00.941Z,49.99
2022-08-17T02:13:08.748Z,48.46
2022-08-17T02:18:30.139Z,47.89
2022-08-17T02:23:36.522Z,49.97
2022-08-17T02:28:41.184Z,50.87
2022-08-17T02:34:04.626Z,49.99
2022-08-17T02:39:11.080Z,50.69
2022-08-17T02:44:13.285Z,50.28
2022-08-17T02:49:35.404Z,49.50
2022-08-17T02:54:42.256Z,50.22
2022-08-17T02:59:48.951Z,51.05
2022-08-17T03:04:51.288Z,52.01
2022-08-17T03:10:12.695Z,51.73
2022-08-17T03:15:17.183Z,51.54
2022-08-17T03:20:20.636Z,51.07
2022-08-17T03:25:31.797Z,51.47
2022-08-17T03:30:55.428Z,51.65
2022-08-17T03:35:57.935Z,50.50
2022-08-17T03:41:05.767Z,51.26
2022-08-17T03:46:11.001Z,51.43
2022-08-17T03:57:04.718Z,51.04
2022-08-17T04:02:12.013Z,50.65
2022-08-17T04:07:17.345Z,53.65
2022-08-17T04:12:53.729Z,52.51
2022-08-17T04:18:14.072Z,51.92
2022-08-17T04:23:18.642Z,52.99
2022-08-17T04:28:39.042Z,52.29
2022-08-17T04:33:42.641Z,51.86
2022-08-17T04:38:46.164Z,52.18
2022-08-17T04:44:06.460Z,52.62
2022-08-17T04:49:29.619Z,50.71
2022-08-17T04:54:34.863Z,51.07
2022-08-17T04:59:55.193Z,51.29
2022-08-17T05:04:57.778Z,51.23
2022-08-17T05:10:03.263Z,52.36
2022-08-17T05:15:05.977Z,52.64
2022-08-17T05:20:11.952Z,50.51
2022-08-17T05:25:37.389Z,51.96
2022-08-17T05:30:41.747Z,50.59
2022-08-17T05:36:04.956Z,51.43
2022-08-17T05:41:25.225Z,50.68
2022-08-17T05:46:51.970Z,50.61
2022-08-17T05:51:56.970Z,50.43
2022-08-17T05:57:33.185Z,49.45
2022-08-17T06:03:30.546Z,50.74
2022-08-17T06:08:38.073Z,51.00
2022-08-17T06:13:58.017Z,50.10
2022-08-17T06:19:38.813Z,48.74
2022-08-17T06:24:49.110Z,48.13
2022-08-17T06:30:01.881Z,48.46
2022-08-17T06:35:09.059Z,45.91
2022-08-17T06:40:29.810Z,43.03
2022-08-17T06:45:42.167Z,46.10
2022-08-17T06:51:07.469Z,46.54
2022-08-17T06:56:53.761Z,45.32
2022-08-17T07:01:59.788Z,45.45
2022-08-17T07:07:10.818Z,47.91
2022-08-17T07:12:22.620Z,46.56
2022-08-17T07:17:47.256Z,45.04
2022-08-17T07:23:51.978Z,45.25
2022-08-17T07:28:55.160Z,42.86
2022-08-17T07:34:09.401Z,41.63
2022-08-17T07:39:11.651Z,40.30
2022-08-17T07:44:15.963Z,39.16
2022-08-17T07:49:40.110Z,38.50
2022-08-17T07:54:47.056Z,37.40
2022-08-17T07:59:57.992Z,35.35
2022-08-17T08:05:29.886Z,34.83
2022-08-17T08:11:00.496Z,31.90
2022-08-17T08:16:17.660Z,32.61
2022-08-17T08:21:25.712Z,31.27
2022-08-17T08:27:14.131Z,30.77
2022-08-17T08:32:20.888Z,30.16
2022-08-17T08:38:11.197Z,30.70
2022-08-17T08:43:53.107Z,29.96
2022-08-17T08:49:17.229Z,29.46
2022-08-17T08:54:37.625Z,31.62
2022-08-17T08:59:42.151Z,31.24
2022-08-17T09:05:15.990Z,29.03
2022-08-17T09:10:39.402Z,30.94
2022-08-17T09:15:59.961Z,29.45
2022-08-17T09:21:18.161Z,28.93
2022-08-17T09:26:33.065Z,29.67
2022-08-17T09:31:59.470Z,27.66
2022-08-17T09:37:11.167Z,30.42
2022-08-17T09:42:30.549Z,26.73
2022-08-17T09:47:49.945Z,26.45
2022-08-17T09:52:58.921Z,27.53
2022-08-17T09:58:39.701Z,27.29
2022-08-17T10:03:41.712Z,27.57
2022-08-17T10:09:22.355Z,25.84
2022-08-17T10:15:09.525Z,24.78
2022-08-17T10:20:18.699Z,24.22
2022-08-17T10:25:24.853Z,25.19
2022-08-17T10:30:44.337Z,27.57
2022-08-17T10:35:49.179Z,25.87
2022-08-17T10:40:56.722Z,25.13
2022-08-17T10:46:30.026Z,25.59
2022-08-17T10:51:39.965Z,25.05
2022-08-17T10:56:46.820Z,25.02
2022-08-17T11:02:19.761Z,23.99
2022-08-17T11:07:49.000Z,25.01
2022-08-17T11:13:06.088Z,24.24
2022-08-17T11:18:24.576Z,24.28
2022-08-17T11:23:26.446Z,23.25
2022-08-17T11:28:52.843Z,24.76
2022-08-17T11:33:55.101Z,22.60
2022-08-17T11:39:30.726Z,24.21
2022-08-17T11:45:31.839Z,23.24
2022-08-17T11:51:16.019Z,22.61
2022-08-17T11:56:49.871Z,23.02
2022-08-17T12:01:55.607Z,22.36
2022-08-17T12:07:10.092Z,23.77
2022-08-17T12:12:19.823Z,24.00
2022-08-17T12:17:52.150Z,24.41
2022-08-17T12:23:21.164Z,23.99
2022-08-17T12:28:36.031Z,25.89
2022-08-17T12:33:43.961Z,24.72
2022-08-17T12:38:53.881Z,23.13
2022-08-17T12:44:20.251Z,23.36
2022-08-17T12:49:30.022Z,23.64
2022-08-17T12:54:59.000Z,24.34
2022-08-17T13:00:21.043Z,24.79
2022-08-17T13:05:27.718Z,23.81
2022-08-17T13:10:35.271Z,25.12
2022-08-17T13:16:01.231Z,24.43
2022-08-17T13:21:25.111Z,24.31
2022-08-17T13:26:32.099Z,26.86
2022-08-17T13:31:52.400Z,27.79
2022-08-17T13:37:22.023Z,29.16
2022-08-17T13:42:31.361Z,27.34
2022-08-17T13:47:36.343Z,29.60
2022-08-17T13:52:41.833Z,30.95
2022-08-17T13:57:50.011Z,28.38
2022-08-17T14:03:06.499Z,29.08
2022-08-17T14:08:18.639Z,29.65
2022-08-17T14:13:41.119Z,29.83
2022-08-17T14:18:56.918Z,29.98
2022-08-17T14:24:31.210Z,28.76
2022-08-17T14:29:33.775Z,28.36
2022-08-17T14:34:36.935Z,30.17
2022-08-17T14:39:39.096Z,29.47
2022-08-17T14:44:44.171Z,28.99
2022-08-17T14:49:47.653Z,28.36
2022-08-17T14:54:51.284Z,30.50
2022-08-17T14:59:56.734Z,30.32
2022-08-17T15:05:19.744Z,30.61
2022-08-17T15:10:41.105Z,29.38
2022-08-17T15:16:03.020Z,29.85
2022-08-17T15:21:07.330Z,29.11
2022-08-17T15:26:11.712Z,33.52
2022-08-17T15:31:32.566Z,31.75
2022-08-17T15:36:35.241Z,31.10
2022-08-17T15:41:37.542Z,33.28
2022-08-17T15:46:39.680Z,33.25
2022-08-17T15:51:49.648Z,30.95
2022-08-17T15:56:54.215Z,31.68
2022-08-17T16:08:05.527Z,31.95
2022-08-17T16:13:27.987Z,29.85
2022-08-17T16:18:31.083Z,29.97
2022-08-17T16:24:03.170Z,30.02
2022-08-17T16:29:24.676Z,33.39
2022-08-17T16:34:27.326Z,31.87
2022-08-17T16:39:48.137Z,33.57
2022-08-17T16:45:21.851Z,35.92
2022-08-17T16:50:25.687Z,35.37
2022-08-17T16:55:27.886Z,36.11
2022-08-17T17:00:31.126Z,36.81
2022-08-17T17:06:11.046Z,36.49
2022-08-17T17:11:23.386Z,35.90
2022-08-17T17:17:05.746Z,36.61
2022-08-17T17:22:16.106Z,37.20
2022-08-17T17:27:45.029Z,37.88
2022-08-17T17:33:11.232Z,37.27
2022-08-17T17:38:22.028Z,38.24
2022-08-17T17:43:38.934Z,41.66
2022-08-17T17:48:42.107Z,40.79
2022-08-17T17:54:09.544Z,40.46
2022-08-17T17:59:43.320Z,43.84
2022-08-17T18:05:02.959Z,43.39
2022-08-17T18:10:19.605Z,44.77
2022-08-17T18:15:53.447Z,43.44
2022-08-17T18:21:23.398Z,49.37
2022-08-17T18:26:39.761Z,51.01
2022-08-17T18:31:46.544Z,47.39
2022-08-17T18:36:48.675Z,48.88
2022-08-17T18:42:28.508Z,49.05
2022-08-17T18:47:55.673Z,49.80
2022-08-17T18:53:30.203Z,50.33
2022-08-17T18:59:31.871Z,50.85
2022-08-17T19:05:10.367Z,52.34
2022-08-17T19:10:46.931Z,55.48
2022-08-17T19:16:25.224Z,54.79
2022-08-17T19:21:35.136Z,55.89
2022-08-17T19:33:17.428Z,69.06
2022-08-17T19:38:40.256Z,70.87
2022-08-17T19:44:16.749Z,70.82
2022-08-17T19:49:41.639Z,69.90
2022-08-17T19:54:54.541Z,71.17
2022-08-17T20:00:04.066Z,71.94
2022-08-17T20:05:44.443Z,71.61
2022-08-17T20:11:32.107Z,70.98
2022-08-17T20:16:34.888Z,68.72
2022-08-17T20:22:16.494Z,69.95
2022-08-17T20:27:21.255Z,69.18
2022-08-17T20:32:48.907Z,66.53
2022-08-17T20:38:30.961Z,68.04
2022-08-17T20:43:33.097Z,67.99
2022-08-17T20:48:58.281Z,68.35
2022-08-17T20:54:28.852Z,67.65
2022-08-17T20:59:49.597Z,62.57
2022-08-17T21:05:32.319Z,60.73
2022-08-17T21:10:37.714Z,62.44
2022-08-17T21:16:23.490Z,63.88
2022-08-17T21:22:12.723Z,64.25
2022-08-17T21:27:35.125Z,63.44
2022-08-17T21:32:42.009Z,66.48
2022-08-17T21:38:04.207Z,64.95
2022-08-17T21:43:20.347Z,63.33
2022-08-17T21:48:48.196Z,65.28
2022-08-17T21:54:37.284Z,63.75
2022-08-17T21:59:39.890Z,65.69
2022-08-17T22:05:12.657Z,63.46
2022-08-17T22:10:48.014Z,60.79
2022-08-17T22:16:15.205Z,59.08
2022-08-17T22:21:18.357Z,63.00
2022-08-17T22:26:46.722Z,63.50
2022-08-17T22:32:07.325Z,62.34
2022-08-17T22:37:30.835Z,63.02
2022-08-17T22:42:35.881Z,64.68
2022-08-17T22:47:58.968Z,63.67
2022-08-17T22:53:22.493Z,66.03
2022-08-17T22:58:25.096Z,66.01
2022-08-17T23:04:03.404Z,67.04
2022-08-17T23:09:07.181Z,68.10
2022-08-17T23:14:11.403Z,67.59
2022-08-17T23:19:19.214Z,66.23
2022-08-17T23:24:34.325Z,66.26
2022-08-17T23:29:36.763Z,65.66
2022-08-17T23:34:58.772Z,64.38
2022-08-17T23:40:00.994Z,66.22
2022-08-17T23:45:21.752Z,66.21
2022-08-17T23:50:42.748Z,64.16
2022-08-17T23:55:44.972Z,64.00
